createdAt,value
2023-05-15T00:02:08.633Z,14.73
2023-05-15T00:04:35.571Z,15.53
2023-05-15T00:07:02.453Z,14.03
2023-05-15T00:09:29.365Z,14.20
2023-05-15T00:11:56.944Z,13.30
2023-05-15T00:14:25.487Z,12.93
2023-05-15T00:16:52.384Z,12.67
2023-05-15T00:19:19.325Z,12.07
2023-05-15T00:21:46.599Z,12.23
2023-05-15T00:24:13.422Z,11.73
2023-05-15T00:26:40.327Z,10.90
2023-05-15T00:29:07.149Z,11.20
2023-05-15T00:31:34.069Z,10.53
2023-05-15T00:34:01.012Z,8.80
2023-05-15T00:36:27.917Z,7.03
2023-05-15T00:38:54.779Z,7.03
2023-05-15T00:41:23.659Z,6.80
2023-05-15T00:43:52.304Z,6.43
2023-05-15T00:46:22.114Z,7.00
2023-05-15T00:48:50.832Z,6.83
2023-05-15T00:51:18.115Z,7.23
2023-05-15T00:53:45.035Z,9.10
2023-05-15T00:56:12.663Z,8.43
2023-05-15T00:58:40.256Z,8.80
2023-05-15T01:01:08.402Z,8.97
2023-05-15T01:03:36.104Z,9.30
2023-05-15T01:06:03.836Z,10.03
2023-05-15T01:08:46.603Z,9.50
2023-05-15T01:11:18.085Z,10.37
2023-05-15T01:13:45.033Z,8.90
2023-05-15T01:16:12.426Z,11.30
2023-05-15T01:18:39.398Z,11.20
2023-05-15T01:21:06.504Z,11.40
2023-05-15T01:24:04.866Z,11.10
2023-05-15T01:27:28.864Z,14.67
2023-05-15T01:30:00.657Z,11.60
2023-05-15T01:32:59.514Z,11.37
2023-05-15T01:35:38.649Z,12.20
2023-05-15T01:38:40.464Z,11.00
2023-05-15T01:44:40.853Z,11.97
2023-05-15T01:47:14.518Z,11.33
2023-05-15T01:49:45.033Z,13.10
2023-05-15T01:52:29.498Z,11.97
2023-05-15T01:54:58.810Z,13.57
2023-05-15T01:57:28.862Z,12.93
2023-05-15T01:59:58.001Z,11.43
2023-05-15T02:02:27.342Z,12.43
2023-05-15T02:04:55.917Z,12.53
2023-05-15T02:07:24.487Z,14.60
2023-05-15T02:09:52.901Z,14.63
2023-05-15T02:12:21.355Z,12.17
2023-05-15T02:14:50.713Z,12.77
2023-05-15T02:17:17.666Z,14.87
2023-05-15T02:19:44.622Z,13.30
2023-05-15T02:22:11.656Z,13.73
2023-05-15T02:24:38.523Z,18.30
2023-05-15T02:27:20.216Z,14.50
2023-05-15T02:30:11.415Z,12.67
2023-05-15T02:33:05.982Z,13.13
2023-05-15T02:36:09.902Z,14.03
2023-05-15T02:38:47.764Z,13.20
2023-05-15T02:41:16.953Z,12.87
2023-05-15T02:43:46.074Z,13.03
2023-05-15T02:46:14.363Z,12.87
2023-05-15T02:48:44.613Z,14.60
2023-05-15T02:51:11.740Z,13.47
2023-05-15T02:53:42.768Z,13.37
2023-05-15T02:56:10.337Z,13.00
2023-05-15T02:58:39.017Z,13.53
2023-05-15T03:01:06.120Z,13.70
2023-05-15T03:03:33.249Z,12.90
2023-05-15T03:06:00.091Z,12.10
2023-05-15T03:08:27.120Z,11.63
2023-05-15T03:10:54.052Z,13.93
2023-05-15T03:13:20.938Z,11.40
2023-05-15T03:15:47.827Z,10.50
2023-05-15T03:18:17.122Z,12.57
2023-05-15T03:20:47.742Z,10.93
2023-05-15T03:23:14.613Z,10.53
2023-05-15T03:25:41.559Z,10.70
2023-05-15T03:28:08.565Z,9.77
2023-05-15T03:30:37.115Z,10.03
2023-05-15T03:33:04.230Z,10.40
2023-05-15T03:35:31.319Z,11.07
2023-05-15T03:37:58.486Z,10.67
2023-05-15T03:40:25.319Z,9.70
2023-05-15T03:42:52.189Z,9.70
2023-05-15T03:45:19.820Z,9.80
2023-05-15T03:47:46.770Z,9.70
2023-05-15T03:50:13.920Z,9.87
2023-05-15T03:52:42.274Z,10.30
2023-05-15T03:55:09.663Z,9.53
2023-05-15T03:57:36.561Z,8.93
2023-05-15T04:00:03.768Z,8.80
2023-05-15T04:02:30.759Z,8.27
2023-05-15T04:04:57.885Z,8.10
2023-05-15T04:07:24.864Z,7.70
2023-05-15T04:09:51.693Z,7.30
2023-05-15T04:12:18.584Z,7.37
2023-05-15T04:14:45.416Z,7.10
2023-05-15T04:17:12.294Z,7.63
2023-05-15T04:19:41.073Z,7.10
2023-05-15T04:22:08.892Z,6.93
2023-05-15T04:24:35.724Z,9.87
2023-05-15T04:27:02.638Z,7.00
2023-05-15T04:29:29.552Z,7.73
2023-05-15T04:31:56.455Z,6.73
2023-05-15T04:34:23.350Z,7.60
2023-05-15T04:36:51.712Z,6.83
2023-05-15T04:39:18.542Z,6.70
2023-05-15T04:41:45.408Z,7.80
2023-05-15T04:44:12.297Z,6.73
2023-05-15T04:46:39.360Z,6.80
2023-05-15T04:49:06.237Z,5.90
2023-05-15T04:51:33.080Z,6.97
2023-05-15T04:53:59.951Z,6.93
2023-05-15T04:56:26.768Z,6.45
2023-05-15T04:58:53.626Z,7.37
2023-05-15T05:01:20.533Z,7.10
2023-05-15T05:03:47.502Z,7.10
2023-05-15T05:06:14.356Z,7.87
2023-05-15T05:08:41.200Z,6.30
2023-05-15T05:11:08.055Z,6.73
2023-05-15T05:13:34.950Z,6.70
2023-05-15T05:16:02.048Z,6.70
2023-05-15T05:18:31.188Z,6.40
2023-05-15T05:21:02.089Z,8.80
2023-05-15T05:23:30.488Z,6.17
2023-05-15T05:25:57.953Z,6.87
2023-05-15T05:28:24.799Z,6.43
2023-05-15T05:30:51.836Z,6.97
2023-05-15T05:33:18.706Z,7.43
2023-05-15T05:35:45.545Z,6.63
2023-05-15T05:38:12.388Z,6.70
2023-05-15T05:40:39.303Z,5.90
2023-05-15T05:43:06.587Z,6.33
2023-05-15T05:45:33.506Z,5.33
2023-05-15T05:48:00.495Z,6.93
2023-05-15T05:50:27.553Z,5.97
2023-05-15T05:52:54.462Z,6.80
2023-05-15T05:55:21.446Z,7.23
2023-05-15T05:57:48.295Z,7.20
2023-05-15T06:00:15.743Z,6.43
2023-05-15T06:02:42.954Z,7.90
2023-05-15T06:05:10.064Z,8.67
2023-05-15T06:07:36.967Z,7.83
2023-05-15T06:10:03.990Z,7.17
2023-05-15T06:12:30.969Z,7.70
2023-05-15T06:14:57.771Z,6.93
2023-05-15T06:17:24.651Z,7.20
2023-05-15T06:19:51.439Z,6.47
2023-05-15T06:22:18.309Z,7.20
2023-05-15T06:24:45.093Z,6.83
2023-05-15T06:27:12.004Z,8.00
2023-05-15T06:29:38.925Z,6.53
2023-05-15T06:32:06.347Z,10.23
2023-05-15T06:34:33.181Z,7.77
2023-05-15T06:37:01.687Z,7.10
2023-05-15T06:39:28.552Z,6.67
2023-05-15T06:41:55.407Z,6.23
2023-05-15T06:44:23.611Z,6.90
2023-05-15T06:46:50.625Z,6.30
2023-05-15T06:49:17.755Z,6.50
2023-05-15T06:51:44.680Z,6.77
2023-05-15T06:54:11.551Z,5.37
2023-05-15T06:56:38.413Z,6.13
2023-05-15T06:59:05.315Z,5.60
2023-05-15T07:01:32.624Z,4.90
2023-05-15T07:03:59.543Z,5.50
2023-05-15T07:06:26.555Z,4.90
2023-05-15T07:08:53.387Z,5.07
2023-05-15T07:11:20.240Z,8.40
2023-05-15T07:13:47.116Z,5.20
2023-05-15T07:16:13.947Z,4.20
2023-05-15T07:18:40.842Z,4.17
2023-05-15T07:21:07.701Z,3.93
2023-05-15T07:23:34.574Z,3.53
2023-05-15T07:26:01.367Z,3.93
2023-05-15T07:28:28.258Z,4.73
2023-05-15T07:30:55.163Z,4.17
2023-05-15T07:33:22.048Z,3.77
2023-05-15T07:35:51.030Z,3.70
2023-05-15T07:38:17.901Z,3.73
2023-05-15T07:40:44.779Z,3.47
2023-05-15T07:43:11.634Z,3.03
2023-05-15T07:45:38.527Z,3.20
2023-05-15T07:48:17.106Z,2.93
2023-05-15T07:50:45.903Z,2.83
2023-05-15T07:53:14.285Z,2.50
2023-05-15T07:55:41.267Z,3.00
2023-05-15T07:58:08.225Z,2.83
2023-05-15T08:00:35.021Z,3.20
2023-05-15T08:03:02.137Z,3.10
2023-05-15T08:05:29.349Z,2.80
2023-05-15T08:07:57.363Z,2.90
2023-05-15T08:10:24.290Z,2.27
2023-05-15T08:12:51.182Z,2.20
2023-05-15T08:15:18.310Z,2.50
2023-05-15T08:17:45.332Z,2.20
2023-05-15T08:20:13.500Z,2.10
2023-05-15T08:22:40.379Z,2.87
2023-05-15T08:25:08.192Z,1.90
2023-05-15T08:27:35.255Z,2.07
2023-05-15T08:30:02.215Z,1.80
2023-05-15T08:32:29.140Z,2.30
2023-05-15T08:34:56.186Z,1.87
2023-05-15T08:37:22.975Z,1.10
2023-05-15T08:39:49.809Z,1.20
2023-05-15T08:42:30.498Z,1.10
2023-05-15T08:45:00.199Z,1.20
2023-05-15T08:47:29.607Z,1.20
2023-05-15T08:50:15.798Z,1.30
2023-05-15T08:52:45.930Z,1.10
2023-05-15T08:55:15.871Z,1.67
2023-05-15T08:57:43.713Z,1.20
2023-05-15T09:00:12.043Z,1.27
2023-05-15T09:02:40.404Z,1.37
2023-05-15T09:05:09.354Z,1.20
2023-05-15T09:07:39.328Z,1.67
2023-05-15T09:10:07.325Z,1.17
2023-05-15T09:12:37.319Z,1.37
2023-05-15T09:15:16.492Z,1.73
2023-05-15T09:17:44.987Z,1.53
2023-05-15T09:20:32.097Z,2.30
2023-05-15T09:23:01.645Z,1.47
2023-05-15T09:25:44.295Z,1.90
2023-05-15T09:28:25.637Z,1.93
2023-05-15T09:31:06.452Z,1.87
2023-05-15T09:33:40.217Z,1.40
2023-05-15T09:36:09.313Z,2.10
2023-05-15T09:38:42.313Z,1.63
2023-05-15T09:41:09.819Z,1.40
2023-05-15T09:43:41.394Z,2.10
2023-05-15T09:46:08.691Z,1.70
2023-05-15T09:48:36.393Z,1.90
2023-05-15T09:51:03.650Z,2.40
2023-05-15T09:53:30.578Z,1.90
2023-05-15T09:55:57.496Z,1.93
2023-05-15T09:58:24.476Z,2.33
2023-05-15T10:00:51.353Z,2.47
2023-05-15T10:03:19.526Z,2.13
2023-05-15T10:05:46.881Z,2.30
2023-05-15T10:08:13.783Z,2.07
2023-05-15T10:10:42.614Z,1.97
2023-05-15T10:13:10.369Z,2.20
2023-05-15T10:15:39.241Z,2.70
2023-05-15T10:18:08.019Z,2.47
2023-05-15T10:20:36.131Z,2.47
2023-05-15T10:23:05.792Z,1.90
2023-05-15T10:25:48.367Z,2.47
2023-05-15T10:28:17.580Z,3.70
2023-05-15T10:30:44.519Z,3.07
2023-05-15T10:33:12.091Z,5.33
2023-05-15T10:35:40.657Z,2.60
2023-05-15T10:38:07.664Z,2.23
2023-05-15T10:40:38.434Z,2.60
2023-05-15T10:43:05.980Z,4.00
2023-05-15T10:45:35.329Z,1.90
2023-05-15T10:48:05.398Z,1.93
2023-05-15T10:50:32.436Z,3.57
2023-05-15T10:53:01.023Z,2.30
2023-05-15T10:55:28.054Z,2.67
2023-05-15T10:57:55.009Z,1.93
2023-05-15T11:00:31.190Z,1.43
2023-05-15T11:02:58.439Z,2.10
2023-05-15T11:05:26.242Z,2.17
2023-05-15T11:08:17.879Z,2.40
2023-05-15T11:10:44.775Z,3.37
2023-05-15T11:13:11.771Z,1.67
2023-05-15T11:15:47.544Z,2.10
2023-05-15T11:18:15.266Z,2.00
2023-05-15T11:20:52.454Z,1.63
2023-05-15T11:23:23.983Z,2.27
2023-05-15T11:25:57.017Z,1.83
2023-05-15T11:28:26.090Z,1.93
2023-05-15T11:30:55.792Z,2.13
2023-05-15T11:33:22.743Z,1.63
2023-05-15T11:35:58.447Z,1.90
2023-05-15T11:38:26.699Z,1.97
2023-05-15T11:40:58.062Z,1.57
2023-05-15T11:43:35.405Z,1.40
2023-05-15T11:46:11.271Z,4.50
2023-05-15T11:48:41.429Z,1.70
2023-05-15T11:51:23.341Z,1.57
2023-05-15T11:53:52.452Z,2.00
2023-05-15T11:56:24.702Z,1.90
2023-05-15T11:58:58.454Z,2.10
2023-05-15T12:01:25.916Z,2.30
2023-05-15T12:03:53.476Z,2.07
2023-05-15T12:06:20.963Z,2.93
2023-05-15T12:08:53.016Z,3.33
2023-05-15T12:11:24.668Z,2.50
2023-05-15T12:13:55.341Z,3.60
2023-05-15T12:16:26.834Z,3.33
2023-05-15T12:18:54.562Z,3.30
2023-05-15T12:21:21.525Z,2.80
2023-05-15T12:24:06.333Z,3.53
2023-05-15T12:26:36.200Z,3.40
2023-05-15T12:29:04.640Z,3.13
2023-05-15T12:31:34.121Z,3.63
2023-05-15T12:34:01.343Z,3.50
2023-05-15T12:36:28.541Z,3.27
2023-05-15T12:38:56.045Z,3.70
2023-05-15T12:41:29.596Z,3.33
2023-05-15T12:43:56.645Z,5.33
2023-05-15T12:46:30.360Z,4.07
2023-05-15T12:49:01.613Z,3.37
2023-05-15T12:51:28.556Z,4.60
2023-05-15T12:53:56.454Z,3.70
2023-05-15T12:56:23.491Z,4.87
2023-05-15T12:58:51.389Z,3.60
2023-05-15T13:01:18.318Z,4.63
2023-05-15T13:03:47.224Z,4.10
2023-05-15T13:06:16.109Z,4.20
2023-05-15T13:08:43.301Z,3.90
2023-05-15T13:11:13.636Z,3.53
2023-05-15T13:13:50.539Z,3.70
2023-05-15T13:16:28.463Z,3.30
2023-05-15T13:18:59.105Z,3.30
2023-05-15T13:21:26.101Z,3.27
2023-05-15T13:23:53.091Z,3.80
2023-05-15T13:26:19.936Z,3.67
2023-05-15T13:28:46.942Z,3.23
2023-05-15T13:31:13.996Z,3.17
2023-05-15T13:33:40.929Z,3.57
2023-05-15T13:36:07.975Z,3.37
2023-05-15T13:38:34.895Z,3.70
2023-05-15T13:41:01.821Z,3.67
2023-05-15T13:43:28.772Z,3.73
2023-05-15T13:45:55.823Z,3.87
2023-05-15T13:48:22.875Z,4.30
2023-05-15T13:50:49.693Z,3.70
2023-05-15T13:53:16.606Z,4.20
2023-05-15T13:55:45.635Z,3.40
2023-05-15T13:58:13.806Z,3.20
2023-05-15T14:00:43.560Z,3.67
2023-05-15T14:03:13.328Z,3.10
2023-05-15T14:05:41.713Z,2.93
2023-05-15T14:08:09.080Z,3.43
2023-05-15T14:10:38.734Z,4.10
2023-05-15T14:13:05.575Z,2.77
2023-05-15T14:15:32.443Z,6.27
2023-05-15T14:17:59.341Z,3.37
2023-05-15T14:20:26.643Z,2.60
2023-05-15T14:22:53.964Z,2.90
2023-05-15T14:25:20.832Z,2.50
2023-05-15T14:27:47.760Z,2.43
2023-05-15T14:30:14.973Z,2.50
2023-05-15T14:32:41.917Z,2.30
2023-05-15T14:35:09.030Z,2.93
2023-05-15T14:37:37.102Z,2.70
2023-05-15T14:40:04.491Z,2.50
2023-05-15T14:42:31.317Z,3.93
2023-05-15T14:44:58.214Z,2.67
2023-05-15T14:47:25.055Z,2.30
2023-05-15T14:49:51.937Z,2.53
2023-05-15T14:52:18.773Z,2.67
2023-05-15T14:54:49.231Z,3.00
2023-05-15T14:57:24.160Z,3.37
2023-05-15T14:59:51.030Z,2.60
2023-05-15T15:02:17.846Z,3.40
2023-05-15T15:04:44.634Z,2.83
2023-05-15T15:07:12.007Z,2.80
2023-05-15T15:09:38.904Z,2.90
2023-05-15T15:12:06.716Z,2.80
2023-05-15T15:14:33.583Z,2.93
2023-05-15T15:17:00.396Z,2.90
2023-05-15T15:19:27.314Z,2.97
2023-05-15T15:21:54.208Z,2.90
2023-05-15T15:24:21.094Z,4.27
2023-05-15T15:26:47.892Z,2.50
2023-05-15T15:29:14.705Z,2.90
2023-05-15T15:31:41.765Z,2.47
2023-05-15T15:34:08.716Z,3.13
2023-05-15T15:36:35.621Z,2.70
2023-05-15T15:39:02.663Z,2.60
2023-05-15T15:41:30.896Z,2.97
2023-05-15T15:43:57.762Z,3.07
2023-05-15T15:46:24.669Z,2.27
2023-05-15T15:48:51.536Z,2.33
2023-05-15T15:51:18.354Z,3.43
2023-05-15T15:53:45.225Z,2.57
2023-05-15T15:56:12.143Z,2.80
2023-05-15T15:58:38.918Z,2.80
2023-05-15T16:01:05.765Z,2.70
2023-05-15T16:03:32.715Z,2.17
2023-05-15T16:06:00.415Z,2.27
2023-05-15T16:08:27.589Z,3.23
2023-05-15T16:10:54.545Z,3.53
2023-05-15T16:13:21.489Z,2.70
2023-05-15T16:15:48.378Z,2.53
2023-05-15T16:18:15.225Z,2.50
2023-05-15T16:20:42.255Z,2.20
2023-05-15T16:23:09.040Z,2.20
2023-05-15T16:25:37.017Z,2.63
2023-05-15T16:28:04.001Z,2.53
2023-05-15T16:30:44.176Z,2.97
2023-05-15T16:33:15.802Z,1.60
2023-05-15T16:35:42.607Z,1.87
2023-05-15T16:38:09.461Z,1.63
2023-05-15T16:40:36.350Z,1.87
2023-05-15T16:43:03.311Z,2.10
2023-05-15T16:45:32.469Z,1.80
2023-05-15T16:47:59.388Z,3.30
2023-05-15T16:50:26.652Z,1.73
2023-05-15T16:52:53.685Z,2.30
2023-05-15T16:55:20.608Z,1.77
2023-05-15T16:57:47.537Z,2.10
2023-05-15T17:00:15.913Z,2.00
2023-05-15T17:02:44.409Z,2.10
2023-05-15T17:05:12.506Z,1.80
2023-05-15T17:07:40.206Z,2.63
2023-05-15T17:10:08.944Z,6.27
2023-05-15T17:12:36.301Z,3.33
2023-05-15T17:15:04.640Z,2.50
2023-05-15T17:17:31.588Z,1.80
2023-05-15T17:19:59.324Z,2.20
2023-05-15T17:22:27.262Z,1.93
2023-05-15T17:24:54.179Z,3.53
2023-05-15T17:27:20.954Z,2.20
2023-05-15T17:29:48.521Z,2.40
2023-05-15T17:32:16.019Z,2.27
2023-05-15T17:34:43.815Z,2.40
2023-05-15T17:37:11.384Z,2.70
2023-05-15T17:39:38.237Z,2.60
2023-05-15T17:42:05.519Z,2.33
2023-05-15T17:44:32.490Z,2.70
2023-05-15T17:47:00.349Z,2.77
2023-05-15T17:49:28.039Z,2.10
2023-05-15T17:51:54.913Z,2.33
2023-05-15T17:54:21.832Z,2.60
2023-05-15T17:56:48.778Z,3.00
2023-05-15T17:59:16.011Z,1.80
2023-05-15T18:01:42.954Z,1.90
2023-05-15T18:04:10.307Z,1.77
2023-05-15T18:06:37.817Z,2.23
2023-05-15T18:09:04.656Z,3.53
2023-05-15T18:11:32.960Z,2.30
2023-05-15T18:13:59.984Z,1.73
2023-05-15T18:16:28.852Z,1.93
2023-05-15T18:18:57.285Z,1.90
2023-05-15T18:21:25.279Z,2.23
2023-05-15T18:23:53.010Z,1.50
2023-05-15T18:26:21.393Z,2.10
2023-05-15T18:28:48.634Z,1.40
2023-05-15T18:31:15.849Z,1.87
2023-05-15T18:33:42.802Z,1.80
2023-05-15T18:36:09.976Z,3.03
2023-05-15T18:38:37.083Z,1.77
2023-05-15T18:41:04.324Z,2.03
2023-05-15T18:43:31.770Z,2.23
2023-05-15T18:45:59.207Z,2.03
2023-05-15T18:48:26.700Z,2.47
2023-05-15T18:50:54.371Z,3.63
2023-05-15T18:53:21.855Z,2.97
2023-05-15T18:55:49.213Z,2.53
2023-05-15T18:58:16.196Z,2.77
2023-05-15T19:00:43.778Z,8.93
2023-05-15T19:03:11.239Z,4.90
2023-05-15T19:05:38.351Z,4.13
2023-05-15T19:08:05.953Z,3.43
2023-05-15T19:10:33.672Z,4.33
2023-05-15T19:13:01.512Z,5.00
2023-05-15T19:15:30.221Z,11.80
2023-05-15T19:17:57.808Z,16.27
2023-05-15T19:20:25.070Z,14.13
2023-05-15T19:22:52.188Z,9.10
2023-05-15T19:25:19.074Z,7.50
2023-05-15T19:27:46.985Z,8.13
2023-05-15T19:30:14.255Z,9.97
2023-05-15T19:32:41.257Z,4.93
2023-05-15T19:35:08.952Z,8.20
2023-05-15T19:37:35.856Z,5.80
2023-05-15T19:40:02.855Z,5.30
2023-05-15T19:42:29.701Z,7.20
2023-05-15T19:44:56.629Z,7.27
2023-05-15T19:47:23.606Z,5.53
2023-05-15T19:49:50.586Z,6.37
2023-05-15T19:52:19.616Z,6.57
2023-05-15T19:54:46.467Z,10.23
2023-05-15T19:57:13.422Z,5.57
2023-05-15T19:59:40.229Z,7.27
2023-05-15T20:02:07.359Z,8.60
2023-05-15T20:04:34.347Z,28.27
2023-05-15T20:07:01.263Z,26.00
2023-05-15T20:09:28.230Z,6.23
2023-05-15T20:11:55.334Z,3.80
2023-05-15T20:14:22.373Z,3.80
2023-05-15T20:16:49.250Z,4.40
2023-05-15T20:19:16.175Z,3.67
2023-05-15T20:21:43.129Z,3.37
2023-05-15T20:24:10.105Z,6.80
2023-05-15T20:26:36.950Z,46.87
2023-05-15T20:29:03.832Z,9.63
2023-05-15T20:31:30.899Z,4.93
2023-05-15T20:33:58.010Z,4.70
2023-05-15T20:36:25.158Z,5.17
2023-05-15T20:38:52.545Z,5.13
2023-05-15T20:41:21.533Z,5.20
2023-05-15T20:43:50.125Z,4.10
2023-05-15T20:46:17.186Z,5.23
2023-05-15T20:48:44.170Z,57.00
2023-05-15T20:51:11.035Z,60.40
2023-05-15T20:53:37.927Z,12.90
2023-05-15T20:56:05.088Z,5.83
2023-05-15T20:58:31.948Z,4.23
2023-05-15T21:00:59.212Z,4.37
2023-05-15T21:03:26.311Z,4.47
2023-05-15T21:05:54.831Z,4.37
2023-05-15T21:08:23.427Z,4.80
2023-05-15T21:10:50.320Z,4.63
2023-05-15T21:13:17.816Z,5.40
2023-05-15T21:15:45.428Z,5.47
2023-05-15T21:18:12.534Z,4.67
2023-05-15T21:20:40.588Z,5.70
2023-05-15T21:23:07.613Z,5.83
2023-05-15T21:25:34.561Z,5.20
2023-05-15T21:28:01.502Z,7.87
2023-05-15T21:30:28.544Z,10.40
2023-05-15T21:32:55.826Z,8.03
2023-05-15T21:35:22.732Z,10.50
2023-05-15T21:37:49.591Z,5.57
2023-05-15T21:40:16.600Z,5.67
2023-05-15T21:42:43.450Z,6.20
2023-05-15T21:45:10.460Z,7.10
2023-05-15T21:47:37.436Z,7.10
2023-05-15T21:50:05.774Z,7.37
2023-05-15T21:52:33.108Z,6.33
2023-05-15T21:55:00.004Z,6.30
2023-05-15T21:57:26.789Z,5.87
2023-05-15T21:59:53.666Z,6.40
2023-05-15T22:02:20.563Z,5.27
2023-05-15T22:04:47.466Z,6.33
2023-05-15T22:07:14.312Z,6.60
2023-05-15T22:09:43.694Z,6.53
2023-05-15T22:12:10.683Z,5.67
2023-05-15T22:14:39.598Z,5.80
2023-05-15T22:17:11.444Z,6.80
2023-05-15T22:19:38.474Z,7.00
2023-05-15T22:22:05.389Z,10.53
2023-05-15T22:24:32.280Z,6.30
2023-05-15T22:26:59.159Z,7.40
2023-05-15T22:29:26.528Z,7.00
2023-05-15T22:31:53.392Z,6.87
2023-05-15T22:34:20.275Z,6.53
2023-05-15T22:36:47.169Z,6.30
2023-05-15T22:39:13.943Z,6.47
2023-05-15T22:41:40.832Z,6.30
2023-05-15T22:44:07.644Z,7.63
2023-05-15T22:46:34.509Z,6.50
2023-05-15T22:49:01.326Z,8.93
2023-05-15T22:51:28.999Z,6.90
2023-05-15T22:54:00.347Z,6.30
2023-05-15T22:56:27.193Z,7.07
2023-05-15T22:58:53.995Z,7.50
2023-05-15T23:01:20.830Z,6.77
2023-05-15T23:03:47.711Z,6.77
2023-05-15T23:06:17.949Z,8.80
2023-05-15T23:08:44.706Z,7.43
2023-05-15T23:11:11.524Z,7.87
2023-05-15T23:13:38.407Z,7.50
2023-05-15T23:16:05.567Z,7.83
2023-05-15T23:18:32.540Z,7.80
2023-05-15T23:20:59.414Z,8.00
2023-05-15T23:23:26.346Z,7.67
2023-05-15T23:25:53.177Z,8.00
2023-05-15T23:28:20.075Z,8.40
2023-05-15T23:30:46.987Z,8.57
2023-05-15T23:33:13.867Z,8.20
2023-05-15T23:35:40.667Z,9.77
2023-05-15T23:38:07.484Z,8.50
2023-05-15T23:40:34.255Z,8.50
2023-05-15T23:43:01.167Z,8.53
2023-05-15T23:45:28.752Z,9.00
2023-05-15T23:47:55.742Z,7.67
2023-05-15T23:50:22.669Z,8.20
2023-05-15T23:52:49.575Z,8.70
2023-05-15T23:55:16.449Z,7.97
2023-05-15T23:57:43.338Z,8.30
